Terminal Aerodrome Forecast
Issued by NWS

Home | Current Version | Previous Version | Text Only | Print | Product List | Glossary On
Versions: 1 2 3 4 5 6 7 8 9 10 11 12 13 14 15
000
FTUS45 KTFX 180500 CCA
TAFHLN
TAF COR
KHLN 180531Z 1806/1906 00000KT 6SM BR FEW002 BKN250
      TEMPO 1806/1810 1/4SM FZFG BKN002
     FM181400 VRB04KT P6SM BKN090 OVC180
     FM190200 VRB04KT P6SM FEW090=

USA.gov is the U.S. government's official web portal to all federal, state and local government web resources and services.